sensor_id;sensor_type;location;lat;lon;timestamp;pressure;altitude;pressure_sealevel;temperature;humidity
15195;BME280;7698;42.478;23.756;2023-04-27T00:00:58;92942.56;;;8.05;77.77
15195;BME280;7698;42.478;23.756;2023-04-27T00:03:24;92941.19;;;8.02;77.78
15195;BME280;7698;42.478;23.756;2023-04-27T00:05:51;92939.00;;;7.99;77.09
15195;BME280;7698;42.478;23.756;2023-04-27T00:08:19;92946.38;;;7.97;76.38
15195;BME280;7698;42.478;23.756;2023-04-27T00:10:46;92948.69;;;7.94;76.22
15195;BME280;7698;42.478;23.756;2023-04-27T00:13:13;92942.47;;;7.88;75.44
15195;BME280;7698;42.478;23.756;2023-04-27T00:15:40;92950.69;;;7.87;75.57
15195;BME280;7698;42.478;23.756;2023-04-27T00:18:07;92950.34;;;7.83;76.20
15195;BME280;7698;42.478;23.756;2023-04-27T00:20:33;92958.53;;;7.81;75.92
15195;BME280;7698;42.478;23.756;2023-04-27T00:23:00;92953.69;;;7.78;76.20
15195;BME280;7698;42.478;23.756;2023-04-27T00:25:28;92951.25;;;7.77;76.05
15195;BME280;7698;42.478;23.756;2023-04-27T00:27:55;92956.44;;;7.72;75.83
15195;BME280;7698;42.478;23.756;2023-04-27T00:30:22;92950.78;;;7.68;75.37
15195;BME280;7698;42.478;23.756;2023-04-27T00:32:49;92949.06;;;7.62;75.24
15195;BME280;7698;42.478;23.756;2023-04-27T00:35:16;92950.56;;;7.58;74.87
15195;BME280;7698;42.478;23.756;2023-04-27T00:37:42;92951.81;;;7.56;74.73
15195;BME280;7698;42.478;23.756;2023-04-27T00:40:10;92949.63;;;7.53;75.41
15195;BME280;7698;42.478;23.756;2023-04-27T00:42:38;92948.81;;;7.52;75.04
15195;BME280;7698;42.478;23.756;2023-04-27T00:45:06;92957.00;;;7.51;75.24
15195;BME280;7698;42.478;23.756;2023-04-27T00:47:33;92961.97;;;7.47;74.87
15195;BME280;7698;42.478;23.756;2023-04-27T00:50:00;92958.97;;;7.43;74.66
15195;BME280;7698;42.478;23.756;2023-04-27T00:52:28;92963.34;;;7.38;74.34
15195;BME280;7698;42.478;23.756;2023-04-27T00:54:56;92967.50;;;7.34;74.89
15195;BME280;7698;42.478;23.756;2023-04-27T00:57:23;92962.66;;;7.31;74.44
15195;BME280;7698;42.478;23.756;2023-04-27T00:59:51;92967.59;;;7.27;74.53
15195;BME280;7698;42.478;23.756;2023-04-27T01:02:18;92970.94;;;7.23;74.67
15195;BME280;7698;42.478;23.756;2023-04-27T01:04:45;92970.44;;;7.14;75.14
15195;BME280;7698;42.478;23.756;2023-04-27T01:07:11;92965.84;;;7.09;75.66
15195;BME280;7698;42.478;23.756;2023-04-27T01:09:38;92972.41;;;7.07;75.90
15195;BME280;7698;42.478;23.756;2023-04-27T01:12:06;92969.03;;;7.00;75.77
15195;BME280;7698;42.478;23.756;2023-04-27T01:14:35;92971.69;;;7.00;75.82
15195;BME280;7698;42.478;23.756;2023-04-27T01:17:03;92969.97;;;7.05;75.80
15195;BME280;7698;42.478;23.756;2023-04-27T01:19:30;92976.44;;;7.09;75.97
15195;BME280;7698;42.478;23.756;2023-04-27T01:21:57;92973.28;;;7.01;76.12
15195;BME280;7698;42.478;23.756;2023-04-27T01:24:25;92972.13;;;6.97;75.75
15195;BME280;7698;42.478;23.756;2023-04-27T01:26:52;92968.06;;;6.94;76.04
15195;BME280;7698;42.478;23.756;2023-04-27T01:29:19;92968.66;;;6.96;75.87
15195;BME280;7698;42.478;23.756;2023-04-27T01:31:46;92969.91;;;6.94;76.29
15195;BME280;7698;42.478;23.756;2023-04-27T01:34:13;92964.59;;;6.94;76.20
15195;BME280;7698;42.478;23.756;2023-04-27T01:36:40;92980.31;;;6.95;75.65
15195;BME280;7698;42.478;23.756;2023-04-27T01:39:07;92964.97;;;6.97;75.64
15195;BME280;7698;42.478;23.756;2023-04-27T01:41:36;92983.13;;;7.12;75.84
15195;BME280;7698;42.478;23.756;2023-04-27T01:44:03;92983.03;;;7.19;74.95
15195;BME280;7698;42.478;23.756;2023-04-27T01:46:31;92984.44;;;7.21;74.92
15195;BME280;7698;42.478;23.756;2023-04-27T01:48:57;92981.56;;;7.23;74.35
15195;BME280;7698;42.478;23.756;2023-04-27T01:51:24;92984.22;;;7.23;74.19
15195;BME280;7698;42.478;23.756;2023-04-27T01:53:52;92983.75;;;7.26;74.11
15195;BME280;7698;42.478;23.756;2023-04-27T01:56:18;92983.97;;;7.24;74.36
15195;BME280;7698;42.478;23.756;2023-04-27T01:58:46;92983.97;;;7.24;73.94
15195;BME280;7698;42.478;23.756;2023-04-27T02:01:13;92981.91;;;7.26;73.57
15195;BME280;7698;42.478;23.756;2023-04-27T02:03:40;92982.50;;;7.28;73.38
15195;BME280;7698;42.478;23.756;2023-04-27T02:06:07;92987.59;;;7.30;74.42
15195;BME280;7698;42.478;23.756;2023-04-27T02:08:34;92985.97;;;7.29;73.65
15195;BME280;7698;42.478;23.756;2023-04-27T02:11:00;92992.09;;;7.29;73.36
15195;BME280;7698;42.478;23.756;2023-04-27T02:13:27;92987.81;;;7.28;73.59
15195;BME280;7698;42.478;23.756;2023-04-27T02:15:55;93001.31;;;7.27;73.74
15195;BME280;7698;42.478;23.756;2023-04-27T02:18:22;92989.66;;;7.28;73.75
15195;BME280;7698;42.478;23.756;2023-04-27T02:20:49;92997.03;;;7.26;74.00
15195;BME280;7698;42.478;23.756;2023-04-27T02:23:16;92989.28;;;7.24;74.26
15195;BME280;7698;42.478;23.756;2023-04-27T02:25:43;92995.63;;;7.23;74.07
15195;BME280;7698;42.478;23.756;2023-04-27T02:28:11;92990.56;;;7.22;74.29
15195;BME280;7698;42.478;23.756;2023-04-27T02:30:38;92996.91;;;7.21;74.76
15195;BME280;7698;42.478;23.756;2023-04-27T02:33:06;92992.84;;;7.18;74.46
15195;BME280;7698;42.478;23.756;2023-04-27T02:35:33;92996.75;;;7.16;75.49
15195;BME280;7698;42.478;23.756;2023-04-27T02:38:00;92999.88;;;7.12;75.13
15195;BME280;7698;42.478;23.756;2023-04-27T02:40:26;93005.44;;;7.11;75.23
15195;BME280;7698;42.478;23.756;2023-04-27T02:42:53;92996.06;;;7.08;75.88
15195;BME280;7698;42.478;23.756;2023-04-27T02:45:20;93005.88;;;7.08;75.31
15195;BME280;7698;42.478;23.756;2023-04-27T02:47:47;93006.09;;;7.06;75.55
15195;BME280;7698;42.478;23.756;2023-04-27T02:50:16;93002.84;;;7.04;76.33
15195;BME280;7698;42.478;23.756;2023-04-27T02:52:43;93004.94;;;7.02;77.20
15195;BME280;7698;42.478;23.756;2023-04-27T02:55:10;93006.78;;;7.02;77.16
15195;BME280;7698;42.478;23.756;2023-04-27T02:57:37;93016.44;;;6.96;76.78
15195;BME280;7698;42.478;23.756;2023-04-27T03:00:06;93016.28;;;6.91;76.44
15195;BME280;7698;42.478;23.756;2023-04-27T03:02:35;93015.34;;;6.86;76.38
15195;BME280;7698;42.478;23.756;2023-04-27T03:05:02;93013.16;;;6.83;76.36
15195;BME280;7698;42.478;23.756;2023-04-27T03:07:31;93012.78;;;6.79;76.57
15195;BME280;7698;42.478;23.756;2023-04-27T03:09:57;93019.78;;;6.73;76.14
15195;BME280;7698;42.478;23.756;2023-04-27T03:12:24;93020.25;;;6.70;76.14
15195;BME280;7698;42.478;23.756;2023-04-27T03:14:51;93031.28;;;6.67;76.15
15195;BME280;7698;42.478;23.756;2023-04-27T03:17:18;93030.91;;;6.64;76.05
15195;BME280;7698;42.478;23.756;2023-04-27T03:19:46;93030.78;;;6.59;76.80
15195;BME280;7698;42.478;23.756;2023-04-27T03:22:13;93041.03;;;6.55;76.46
15195;BME280;7698;42.478;23.756;2023-04-27T03:24:42;93036.41;;;6.51;76.55
15195;BME280;7698;42.478;23.756;2023-04-27T03:27:08;93043.97;;;6.47;77.01
15195;BME280;7698;42.478;23.756;2023-04-27T03:29:35;93046.25;;;6.43;76.82
15195;BME280;7698;42.478;23.756;2023-04-27T03:32:02;93046.69;;;6.40;77.54
15195;BME280;7698;42.478;23.756;2023-04-27T03:34:29;93049.41;;;6.34;76.45
15195;BME280;7698;42.478;23.756;2023-04-27T03:36:56;93055.97;;;6.31;76.46
15195;BME280;7698;42.478;23.756;2023-04-27T03:39:23;93048.91;;;6.25;76.00
15195;BME280;7698;42.478;23.756;2023-04-27T03:41:51;93057.28;;;6.22;76.36
15195;BME280;7698;42.478;23.756;2023-04-27T03:44:18;93050.81;;;6.18;76.60
15195;BME280;7698;42.478;23.756;2023-04-27T03:46:45;93061.25;;;6.13;76.07
15195;BME280;7698;42.478;23.756;2023-04-27T03:49:12;93062.53;;;6.04;76.12
15195;BME280;7698;42.478;23.756;2023-04-27T03:51:39;93063.44;;;5.98;76.48
15195;BME280;7698;42.478;23.756;2023-04-27T03:54:06;93058.41;;;5.90;77.03
15195;BME280;7698;42.478;23.756;2023-04-27T03:56:34;93065.13;;;5.86;77.42
15195;BME280;7698;42.478;23.756;2023-04-27T03:59:03;93064.72;;;5.89;77.37
15195;BME280;7698;42.478;23.756;2023-04-27T04:01:30;93069.16;;;5.95;77.16
15195;BME280;7698;42.478;23.756;2023-04-27T04:03:58;93064.03;;;6.00;76.28
15195;BME280;7698;42.478;23.756;2023-04-27T04:06:25;93066.38;;;6.08;75.66
15195;BME280;7698;42.478;23.756;2023-04-27T04:08:52;93065.72;;;6.13;74.54
15195;BME280;7698;42.478;23.756;2023-04-27T04:11:19;93061.84;;;6.15;74.74
15195;BME280;7698;42.478;23.756;2023-04-27T04:13:46;93065.47;;;6.21;73.75
15195;BME280;7698;42.478;23.756;2023-04-27T04:16:15;93078.72;;;6.21;73.49
15195;BME280;7698;42.478;23.756;2023-04-27T04:18:41;93081.53;;;6.26;73.54
15195;BME280;7698;42.478;23.756;2023-04-27T04:21:08;93084.69;;;6.34;73.25
15195;BME280;7698;42.478;23.756;2023-04-27T04:23:35;93080.72;;;6.43;72.99
15195;BME280;7698;42.478;23.756;2023-04-27T04:26:02;93090.16;;;6.58;72.47
15195;BME280;7698;42.478;23.756;2023-04-27T04:28:30;93082.66;;;6.73;72.76
15195;BME280;7698;42.478;23.756;2023-04-27T04:30:56;93092.44;;;6.91;71.16
15195;BME280;7698;42.478;23.756;2023-04-27T04:33:26;93090.59;;;7.09;70.57
15195;BME280;7698;42.478;23.756;2023-04-27T04:35:52;93091.97;;;7.30;70.26
15195;BME280;7698;42.478;23.756;2023-04-27T04:38:19;93087.84;;;7.46;69.24
15195;BME280;7698;42.478;23.756;2023-04-27T04:40:47;93094.16;;;7.63;67.70
15195;BME280;7698;42.478;23.756;2023-04-27T04:43:15;93095.13;;;7.80;66.61
15195;BME280;7698;42.478;23.756;2023-04-27T04:45:42;93100.22;;;7.94;65.83
15195;BME280;7698;42.478;23.756;2023-04-27T04:48:09;93101.66;;;8.08;63.88
15195;BME280;7698;42.478;23.756;2023-04-27T04:50:38;93107.59;;;8.33;64.04
15195;BME280;7698;42.478;23.756;2023-04-27T04:53:06;93113.25;;;8.60;62.08
15195;BME280;7698;42.478;23.756;2023-04-27T04:55:33;93117.88;;;8.88;62.49
15195;BME280;7698;42.478;23.756;2023-04-27T04:57:59;93118.91;;;8.99;60.61
15195;BME280;7698;42.478;23.756;2023-04-27T05:00:27;93119.63;;;8.82;59.34
15195;BME280;7698;42.478;23.756;2023-04-27T05:02:54;93126.94;;;8.64;59.22
15195;BME280;7698;42.478;23.756;2023-04-27T05:05:21;93128.09;;;8.44;59.15
15195;BME280;7698;42.478;23.756;2023-04-27T05:07:49;93128.88;;;8.33;60.26
15195;BME280;7698;42.478;23.756;2023-04-27T05:10:16;93137.66;;;8.34;61.36
15195;BME280;7698;42.478;23.756;2023-04-27T05:12:43;93140.22;;;8.40;62.46
15195;BME280;7698;42.478;23.756;2023-04-27T05:15:10;93139.19;;;8.53;63.10
15195;BME280;7698;42.478;23.756;2023-04-27T05:17:37;93145.91;;;8.67;62.75
15195;BME280;7698;42.478;23.756;2023-04-27T05:20:06;93144.03;;;8.79;62.39
15195;BME280;7698;42.478;23.756;2023-04-27T05:22:34;93139.88;;;8.95;62.58
15195;BME280;7698;42.478;23.756;2023-04-27T05:25:03;93146.94;;;9.01;61.17
15195;BME280;7698;42.478;23.756;2023-04-27T05:27:30;93148.56;;;9.02;60.55
15195;BME280;7698;42.478;23.756;2023-04-27T05:29:57;93142.03;;;9.10;60.75
15195;BME280;7698;42.478;23.756;2023-04-27T05:32:24;93145.97;;;9.19;59.42
15195;BME280;7698;42.478;23.756;2023-04-27T05:34:51;93142.59;;;9.24;59.04
15195;BME280;7698;42.478;23.756;2023-04-27T05:37:17;93143.75;;;9.28;59.31
15195;BME280;7698;42.478;23.756;2023-04-27T05:39:44;93149.09;;;9.28;58.80
15195;BME280;7698;42.478;23.756;2023-04-27T05:42:12;93143.25;;;9.31;58.37
15195;BME280;7698;42.478;23.756;2023-04-27T05:44:39;93150.63;;;9.52;58.80
15195;BME280;7698;42.478;23.756;2023-04-27T05:47:07;93146.59;;;10.06;58.99
15195;BME280;7698;42.478;23.756;2023-04-27T05:49:34;93148.94;;;11.03;58.25
15195;BME280;7698;42.478;23.756;2023-04-27T05:52:01;93149.22;;;11.89;55.68
15195;BME280;7698;42.478;23.756;2023-04-27T05:54:28;93159.38;;;12.73;53.41
15195;BME280;7698;42.478;23.756;2023-04-27T05:56:55;93156.88;;;13.30;49.22
15195;BME280;7698;42.478;23.756;2023-04-27T05:59:23;93160.25;;;13.63;47.87
15195;BME280;7698;42.478;23.756;2023-04-27T06:01:51;93162.31;;;14.13;47.47
15195;BME280;7698;42.478;23.756;2023-04-27T06:04:18;93165.94;;;14.69;47.50
15195;BME280;7698;42.478;23.756;2023-04-27T06:06:45;93168.31;;;15.21;45.38
15195;BME280;7698;42.478;23.756;2023-04-27T06:09:12;93162.84;;;15.77;43.89
15195;BME280;7698;42.478;23.756;2023-04-27T06:11:38;93165.25;;;15.84;42.08
15195;BME280;7698;42.478;23.756;2023-04-27T06:14:05;93171.72;;;15.78;41.46
15195;BME280;7698;42.478;23.756;2023-04-27T06:16:34;93165.53;;;15.82;41.64
15195;BME280;7698;42.478;23.756;2023-04-27T06:19:01;93167.44;;;15.72;41.11
15195;BME280;7698;42.478;23.756;2023-04-27T06:21:31;93158.09;;;15.13;41.33
15195;BME280;7698;42.478;23.756;2023-04-27T06:23:58;93154.34;;;14.84;42.34
15195;BME280;7698;42.478;23.756;2023-04-27T06:26:25;93153.28;;;14.80;42.94
15195;BME280;7698;42.478;23.756;2023-04-27T06:28:53;93153.81;;;14.97;42.91
15195;BME280;7698;42.478;23.756;2023-04-27T06:31:20;93155.41;;;15.29;42.98
15195;BME280;7698;42.478;23.756;2023-04-27T06:33:49;93169.34;;;15.61;42.81
15195;BME280;7698;42.478;23.756;2023-04-27T06:36:16;93174.72;;;15.66;42.02
15195;BME280;7698;42.478;23.756;2023-04-27T06:38:42;93165.31;;;15.38;41.88
15195;BME280;7698;42.478;23.756;2023-04-27T06:41:09;93160.53;;;15.10;41.81
15195;BME280;7698;42.478;23.756;2023-04-27T06:43:36;93161.63;;;14.73;42.55
15195;BME280;7698;42.478;23.756;2023-04-27T06:46:03;93164.22;;;14.28;42.68
15195;BME280;7698;42.478;23.756;2023-04-27T06:48:30;93164.50;;;14.31;43.91
15195;BME280;7698;42.478;23.756;2023-04-27T06:50:58;93176.38;;;15.06;44.56
15195;BME280;7698;42.478;23.756;2023-04-27T06:53:25;93160.88;;;15.93;43.70
15195;BME280;7698;42.478;23.756;2023-04-27T06:55:52;93174.03;;;16.64;41.62
15195;BME280;7698;42.478;23.756;2023-04-27T06:58:19;93182.16;;;17.27;41.15
15195;BME280;7698;42.478;23.756;2023-04-27T07:00:46;93169.53;;;17.22;38.22
15195;BME280;7698;42.478;23.756;2023-04-27T07:03:13;93175.72;;;16.89;40.09
15195;BME280;7698;42.478;23.756;2023-04-27T07:05:40;93178.06;;;16.56;39.68
15195;BME280;7698;42.478;23.756;2023-04-27T07:08:09;93181.59;;;16.03;39.99
15195;BME280;7698;42.478;23.756;2023-04-27T07:10:36;93180.94;;;15.41;40.28
15195;BME280;7698;42.478;23.756;2023-04-27T07:13:03;93182.59;;;15.22;41.97
15195;BME280;7698;42.478;23.756;2023-04-27T07:15:30;93184.47;;;15.21;42.33
15195;BME280;7698;42.478;23.756;2023-04-27T07:17:57;93183.94;;;15.04;42.33
15195;BME280;7698;42.478;23.756;2023-04-27T07:20:24;93189.03;;;14.80;42.32
15195;BME280;7698;42.478;23.756;2023-04-27T07:22:51;93184.97;;;14.42;42.80
15195;BME280;7698;42.478;23.756;2023-04-27T07:25:19;93188.38;;;14.28;43.16
15195;BME280;7698;42.478;23.756;2023-04-27T07:27:47;93178.91;;;13.95;43.60
15195;BME280;7698;42.478;23.756;2023-04-27T07:30:14;93187.06;;;14.35;44.41
15195;BME280;7698;42.478;23.756;2023-04-27T07:32:42;93173.69;;;15.21;44.58
15195;BME280;7698;42.478;23.756;2023-04-27T07:35:10;93181.06;;;15.96;41.87
15195;BME280;7698;42.478;23.756;2023-04-27T07:37:38;93194.56;;;15.90;42.11
15195;BME280;7698;42.478;23.756;2023-04-27T07:40:06;93193.44;;;16.07;41.22
15195;BME280;7698;42.478;23.756;2023-04-27T07:42:40;93184.53;;;16.61;42.16
15195;BME280;7698;42.478;23.756;2023-04-27T07:45:08;93183.47;;;17.30;39.39
15195;BME280;7698;42.478;23.756;2023-04-27T07:47:35;93192.28;;;17.74;39.58
15195;BME280;7698;42.478;23.756;2023-04-27T07:50:02;93187.44;;;18.19;39.48
15195;BME280;7698;42.478;23.756;2023-04-27T07:52:30;93193.72;;;18.76;39.14
15195;BME280;7698;42.478;23.756;2023-04-27T07:54:57;93183.13;;;18.98;36.10
15195;BME280;7698;42.478;23.756;2023-04-27T07:57:24;93183.28;;;19.20;37.29
15195;BME280;7698;42.478;23.756;2023-04-27T07:59:52;93192.81;;;19.69;37.27
15195;BME280;7698;42.478;23.756;2023-04-27T08:02:19;93196.44;;;19.92;36.36
15195;BME280;7698;42.478;23.756;2023-04-27T08:04:46;93198.66;;;20.04;35.56
15195;BME280;7698;42.478;23.756;2023-04-27T08:07:14;93199.38;;;19.96;35.63
15195;BME280;7698;42.478;23.756;2023-04-27T08:09:41;93206.56;;;19.86;35.35
15195;BME280;7698;42.478;23.756;2023-04-27T08:12:08;93209.28;;;19.86;36.93
15195;BME280;7698;42.478;23.756;2023-04-27T08:14:35;93209.00;;;20.15;36.44
15195;BME280;7698;42.478;23.756;2023-04-27T08:17:03;93195.63;;;19.78;33.59
15195;BME280;7698;42.478;23.756;2023-04-27T08:19:30;93202.53;;;19.38;34.98
15195;BME280;7698;42.478;23.756;2023-04-27T08:21:56;93199.72;;;18.30;36.04
15195;BME280;7698;42.478;23.756;2023-04-27T08:24:23;93193.09;;;18.41;38.19
15195;BME280;7698;42.478;23.756;2023-04-27T08:26:50;93202.78;;;18.66;38.03
15195;BME280;7698;42.478;23.756;2023-04-27T08:29:17;93198.09;;;18.90;38.09
15195;BME280;7698;42.478;23.756;2023-04-27T08:31:44;93192.91;;;18.94;37.03
15195;BME280;7698;42.478;23.756;2023-04-27T08:34:12;93194.09;;;19.39;36.96
15195;BME280;7698;42.478;23.756;2023-04-27T08:36:39;93200.41;;;19.16;36.23
15195;BME280;7698;42.478;23.756;2023-04-27T08:39:05;93201.34;;;18.31;34.74
15195;BME280;7698;42.478;23.756;2023-04-27T08:41:33;93204.78;;;17.60;38.22
15195;BME280;7698;42.478;23.756;2023-04-27T08:44:00;93198.06;;;18.10;38.86
15195;BME280;7698;42.478;23.756;2023-04-27T08:46:27;93193.72;;;18.94;38.79
15195;BME280;7698;42.478;23.756;2023-04-27T08:48:55;93196.78;;;19.58;37.44
15195;BME280;7698;42.478;23.756;2023-04-27T08:51:24;93201.63;;;19.61;36.05
15195;BME280;7698;42.478;23.756;2023-04-27T08:53:53;93200.16;;;18.99;35.41
15195;BME280;7698;42.478;23.756;2023-04-27T08:56:26;93198.88;;;18.53;36.56
15195;BME280;7698;42.478;23.756;2023-04-27T08:58:54;93199.28;;;17.75;36.56
15195;BME280;7698;42.478;23.756;2023-04-27T09:01:21;93194.28;;;16.96;37.74
15195;BME280;7698;42.478;23.756;2023-04-27T09:03:54;93195.06;;;16.57;39.36
15195;BME280;7698;42.478;23.756;2023-04-27T09:06:29;93188.50;;;17.12;39.94
15195;BME280;7698;42.478;23.756;2023-04-27T09:08:57;93182.50;;;16.86;37.97
15195;BME280;7698;42.478;23.756;2023-04-27T09:11:28;93186.53;;;16.40;39.16
15195;BME280;7698;42.478;23.756;2023-04-27T09:13:57;93192.13;;;15.94;39.53
15195;BME280;7698;42.478;23.756;2023-04-27T09:16:24;93191.13;;;15.60;40.14
15195;BME280;7698;42.478;23.756;2023-04-27T09:18:52;93185.00;;;15.18;40.84
15195;BME280;7698;42.478;23.756;2023-04-27T09:21:23;93187.16;;;15.11;42.32
15195;BME280;7698;42.478;23.756;2023-04-27T09:23:52;93185.94;;;15.88;42.65
15195;BME280;7698;42.478;23.756;2023-04-27T09:26:19;93178.84;;;17.01;41.04
15195;BME280;7698;42.478;23.756;2023-04-27T09:28:48;93178.47;;;17.18;39.52
15195;BME280;7698;42.478;23.756;2023-04-27T09:31:16;93171.38;;;16.93;39.22
15195;BME280;7698;42.478;23.756;2023-04-27T09:33:44;93170.56;;;16.48;39.13
15195;BME280;7698;42.478;23.756;2023-04-27T09:36:12;93176.66;;;16.15;39.82
15195;BME280;7698;42.478;23.756;2023-04-27T09:38:39;93178.66;;;15.89;40.09
15195;BME280;7698;42.478;23.756;2023-04-27T09:41:08;93175.16;;;15.94;41.38
15195;BME280;7698;42.478;23.756;2023-04-27T09:43:36;93177.25;;;17.00;42.28
15195;BME280;7698;42.478;23.756;2023-04-27T09:46:03;93185.22;;;18.02;39.23
15195;BME280;7698;42.478;23.756;2023-04-27T09:48:31;93165.66;;;17.86;36.38
15195;BME280;7698;42.478;23.756;2023-04-27T09:50:58;93168.13;;;17.25;36.09
15195;BME280;7698;42.478;23.756;2023-04-27T09:53:28;93171.50;;;16.73;37.74
15195;BME280;7698;42.478;23.756;2023-04-27T09:56:07;93169.03;;;16.37;37.98
15195;BME280;7698;42.478;23.756;2023-04-27T09:58:57;93167.69;;;16.40;39.71
15195;BME280;7698;42.478;23.756;2023-04-27T10:01:33;93160.28;;;16.55;38.92
15195;BME280;7698;42.478;23.756;2023-04-27T10:04:15;93160.97;;;16.32;37.06
15195;BME280;7698;42.478;23.756;2023-04-27T10:06:58;93163.31;;;15.95;37.85
15195;BME280;7698;42.478;23.756;2023-04-27T10:09:26;93163.28;;;16.00;38.55
15195;BME280;7698;42.478;23.756;2023-04-27T10:11:55;93158.31;;;16.27;39.27
15195;BME280;7698;42.478;23.756;2023-04-27T10:14:23;93157.19;;;16.33;38.72
15195;BME280;7698;42.478;23.756;2023-04-27T10:16:52;93147.09;;;16.10;38.62
15195;BME280;7698;42.478;23.756;2023-04-27T10:19:19;93160.06;;;15.98;39.99
15195;BME280;7698;42.478;23.756;2023-04-27T10:21:53;93162.19;;;16.06;41.22
15195;BME280;7698;42.478;23.756;2023-04-27T10:24:31;93161.75;;;15.83;39.82
15195;BME280;7698;42.478;23.756;2023-04-27T10:27:01;93163.66;;;15.68;39.76
15195;BME280;7698;42.478;23.756;2023-04-27T10:29:36;93162.88;;;15.62;39.23
15195;BME280;7698;42.478;23.756;2023-04-27T10:32:07;93153.03;;;16.51;40.88
15195;BME280;7698;42.478;23.756;2023-04-27T10:34:34;93158.09;;;17.59;38.32
15195;BME280;7698;42.478;23.756;2023-04-27T10:37:06;93155.44;;;18.26;36.57
15195;BME280;7698;42.478;23.756;2023-04-27T10:39:37;93153.09;;;18.38;36.22
15195;BME280;7698;42.478;23.756;2023-04-27T10:42:04;93159.47;;;18.47;36.92
15195;BME280;7698;42.478;23.756;2023-04-27T10:44:34;93163.03;;;18.24;36.54
15195;BME280;7698;42.478;23.756;2023-04-27T10:47:14;93153.84;;;18.25;37.08
15195;BME280;7698;42.478;23.756;2023-04-27T10:49:41;93149.56;;;18.80;37.52
15195;BME280;7698;42.478;23.756;2023-04-27T10:52:08;93165.50;;;19.79;37.04
15195;BME280;7698;42.478;23.756;2023-04-27T10:54:35;93173.47;;;20.17;35.27
15195;BME280;7698;42.478;23.756;2023-04-27T10:57:05;93177.38;;;20.11;35.04
15195;BME280;7698;42.478;23.756;2023-04-27T10:59:33;93179.25;;;19.69;34.04
15195;BME280;7698;42.478;23.756;2023-04-27T11:02:00;93179.25;;;19.04;33.57
15195;BME280;7698;42.478;23.756;2023-04-27T11:04:38;93169.94;;;19.10;34.83
15195;BME280;7698;42.478;23.756;2023-04-27T11:07:06;93166.91;;;19.63;34.82
15195;BME280;7698;42.478;23.756;2023-04-27T11:09:35;93168.56;;;20.46;35.15
15195;BME280;7698;42.478;23.756;2023-04-27T11:12:05;93162.59;;;20.94;34.44
15195;BME280;7698;42.478;23.756;2023-04-27T11:14:33;93167.13;;;20.99;34.25
15195;BME280;7698;42.478;23.756;2023-04-27T11:17:02;93163.31;;;21.22;32.99
15195;BME280;7698;42.478;23.756;2023-04-27T11:19:30;93157.81;;;21.36;33.98
15195;BME280;7698;42.478;23.756;2023-04-27T11:22:05;93164.31;;;21.26;33.54
15195;BME280;7698;42.478;23.756;2023-04-27T11:24:32;93154.53;;;21.47;33.50
15195;BME280;7698;42.478;23.756;2023-04-27T11:26:59;93159.28;;;21.19;32.39
15195;BME280;7698;42.478;23.756;2023-04-27T11:29:36;93164.50;;;20.30;32.73
15195;BME280;7698;42.478;23.756;2023-04-27T11:32:04;93175.53;;;19.65;33.55
15195;BME280;7698;42.478;23.756;2023-04-27T11:34:31;93176.66;;;19.45;34.06
15195;BME280;7698;42.478;23.756;2023-04-27T11:37:04;93173.72;;;19.74;34.43
15195;BME280;7698;42.478;23.756;2023-04-27T11:39:33;93172.34;;;19.77;34.34
15195;BME280;7698;42.478;23.756;2023-04-27T11:42:14;93170.72;;;19.62;34.09
15195;BME280;7698;42.478;23.756;2023-04-27T11:44:48;93163.16;;;19.26;33.63
15195;BME280;7698;42.478;23.756;2023-04-27T11:47:16;93168.75;;;19.16;35.04
15195;BME280;7698;42.478;23.756;2023-04-27T11:49:46;93165.94;;;19.86;36.07
15195;BME280;7698;42.478;23.756;2023-04-27T11:52:15;93168.25;;;20.48;34.75
15195;BME280;7698;42.478;23.756;2023-04-27T11:54:47;93165.91;;;20.69;34.00
15195;BME280;7698;42.478;23.756;2023-04-27T11:57:14;93161.41;;;20.86;34.03
15195;BME280;7698;42.478;23.756;2023-04-27T11:59:41;93171.09;;;20.79;32.34
15195;BME280;7698;42.478;23.756;2023-04-27T12:02:08;93167.31;;;20.66;33.02
15195;BME280;7698;42.478;23.756;2023-04-27T12:04:35;93159.56;;;20.59;31.60
15195;BME280;7698;42.478;23.756;2023-04-27T12:07:02;93156.97;;;20.54;33.14
15195;BME280;7698;42.478;23.756;2023-04-27T12:09:31;93165.09;;;20.27;32.34
15195;BME280;7698;42.478;23.756;2023-04-27T12:11:58;93172.25;;;19.82;32.87
15195;BME280;7698;42.478;23.756;2023-04-27T12:14:27;93175.44;;;19.38;33.17
15195;BME280;7698;42.478;23.756;2023-04-27T12:16:54;93164.25;;;19.12;33.87
15195;BME280;7698;42.478;23.756;2023-04-27T12:19:20;93164.13;;;18.84;34.66
15195;BME280;7698;42.478;23.756;2023-04-27T12:21:50;93158.75;;;18.98;35.69
15195;BME280;7698;42.478;23.756;2023-04-27T12:24:17;93161.34;;;19.22;35.33
15195;BME280;7698;42.478;23.756;2023-04-27T12:26:45;93161.28;;;19.59;35.54
15195;BME280;7698;42.478;23.756;2023-04-27T12:29:13;93167.72;;;19.77;35.43
15195;BME280;7698;42.478;23.756;2023-04-27T12:31:40;93157.09;;;19.94;34.66
15195;BME280;7698;42.478;23.756;2023-04-27T12:34:07;93155.38;;;20.26;35.32
15195;BME280;7698;42.478;23.756;2023-04-27T12:36:34;93156.09;;;20.45;33.60
15195;BME280;7698;42.478;23.756;2023-04-27T12:39:12;93160.34;;;20.74;33.99
15195;BME280;7698;42.478;23.756;2023-04-27T12:41:42;93170.66;;;20.85;32.98
15195;BME280;7698;42.478;23.756;2023-04-27T12:44:10;93172.47;;;20.40;32.51
15195;BME280;7698;42.478;23.756;2023-04-27T12:46:38;93179.88;;;19.93;33.79
15195;BME280;7698;42.478;23.756;2023-04-27T12:49:05;93174.16;;;19.49;33.68
15195;BME280;7698;42.478;23.756;2023-04-27T12:51:32;93174.34;;;19.39;34.96
15195;BME280;7698;42.478;23.756;2023-04-27T12:53:59;93165.13;;;19.40;33.81
15195;BME280;7698;42.478;23.756;2023-04-27T12:56:27;93171.69;;;19.52;34.14
15195;BME280;7698;42.478;23.756;2023-04-27T12:58:54;93171.44;;;19.49;34.34
15195;BME280;7698;42.478;23.756;2023-04-27T13:01:24;93169.97;;;19.24;34.00
15195;BME280;7698;42.478;23.756;2023-04-27T13:03:52;93165.75;;;18.85;33.44
15195;BME280;7698;42.478;23.756;2023-04-27T13:06:20;93157.41;;;18.39;33.75
15195;BME280;7698;42.478;23.756;2023-04-27T13:08:48;93167.72;;;17.95;34.40